createdAt,value
2022-10-11T00:02:16.615Z,101579.47
2022-10-11T00:04:44.549Z,101576.44
2022-10-11T00:07:20.816Z,101575.38
2022-10-11T00:09:48.872Z,101589.38
2022-10-11T00:12:22.865Z,101558.06
2022-10-11T00:14:51.142Z,101586.53
2022-10-11T00:17:19.108Z,101593.34
2022-10-11T00:19:46.984Z,101590.50
2022-10-11T00:22:15.662Z,101597.31
2022-10-11T00:24:48.143Z,101601.25
2022-10-11T00:27:16.473Z,101603.59
2022-10-11T00:29:46.844Z,101609.53
2022-10-11T00:32:15.323Z,101605.22
2022-10-11T00:34:45.173Z,101610.06
2022-10-11T00:37:20.478Z,101606.31
2022-10-11T00:39:50.819Z,101604.72
2022-10-11T00:42:18.879Z,101613.69
2022-10-11T00:44:51.084Z,101611.72
2022-10-11T00:47:21.307Z,101613.16
2022-10-11T00:49:54.350Z,101613.31
2022-10-11T00:52:31.677Z,101611.38
2022-10-11T00:55:03.991Z,101625.19
2022-10-11T00:57:36.399Z,101628.97
2022-10-11T01:00:09.369Z,101621.22
2022-10-11T01:02:38.158Z,101620.34
2022-10-11T01:05:28.036Z,101619.06
2022-10-11T01:07:58.134Z,101619.06
2022-10-11T01:10:31.016Z,101625.00
2022-10-11T01:13:16.599Z,101634.16
2022-10-11T01:15:56.970Z,101630.41
2022-10-11T01:18:31.902Z,101628.97
2022-10-11T01:21:08.183Z,101628.06
2022-10-11T01:24:08.337Z,101628.81
2022-10-11T01:27:02.799Z,101632.03
2022-10-11T01:29:47.372Z,101635.09
2022-10-11T01:32:18.332Z,101635.47
2022-10-11T01:35:04.895Z,101637.06
2022-10-11T01:37:37.334Z,101640.84
2022-10-11T01:40:09.090Z,101643.34
2022-10-11T01:42:40.207Z,101648.22
2022-10-11T01:45:23.445Z,101650.91
2022-10-11T01:48:04.893Z,101635.84
2022-10-11T01:50:40.961Z,101650.91
2022-10-11T01:53:38.454Z,101653.22
2022-10-11T01:56:20.959Z,101652.84
2022-10-11T01:58:58.035Z,101652.66
2022-10-11T02:01:37.586Z,101662.72
2022-10-11T02:04:17.873Z,101663.44
2022-10-11T02:06:52.065Z,101662.38
2022-10-11T02:09:29.638Z,101667.41
2022-10-11T02:12:23.862Z,101662.91
2022-10-11T02:14:55.713Z,101661.28
2022-10-11T02:17:30.021Z,101664.72
2022-10-11T02:20:14.464Z,101665.97
2022-10-11T02:22:58.900Z,101672.59
2022-10-11T02:25:32.110Z,101669.00
2022-10-11T02:28:09.432Z,101672.78
2022-10-11T02:30:43.092Z,101654.13
2022-10-11T02:33:15.577Z,101674.56
2022-10-11T02:35:48.351Z,101658.25
2022-10-11T02:38:21.946Z,101673.50
2022-10-11T02:40:55.359Z,101672.44
2022-10-11T02:43:36.136Z,101672.78
2022-10-11T02:46:07.545Z,101679.22
2022-10-11T02:48:39.729Z,101682.66
2022-10-11T02:51:14.277Z,101670.09
2022-10-11T02:53:42.254Z,101672.22
2022-10-11T02:56:10.181Z,101678.16
2022-10-11T02:58:38.078Z,101683.53
2022-10-11T03:01:15.791Z,101678.34
2022-10-11T03:03:43.774Z,101679.06
2022-10-11T03:06:12.924Z,101687.47
2022-10-11T03:08:40.784Z,101687.66
2022-10-11T03:11:08.979Z,101696.25
2022-10-11T03:13:36.852Z,101694.13
2022-10-11T03:16:04.913Z,101700.75
2022-10-11T03:18:32.777Z,101695.03
2022-10-11T03:21:00.825Z,101702.56
2022-10-11T03:23:30.158Z,101704.16
2022-10-11T03:26:00.938Z,101710.09
2022-10-11T03:28:33.570Z,101717.41
2022-10-11T03:31:03.697Z,101715.63
2022-10-11T03:33:34.584Z,101721.34
2022-10-11T03:36:19.164Z,101696.63
2022-10-11T03:38:51.018Z,101729.06
2022-10-11T03:41:20.496Z,101730.50
2022-10-11T03:43:51.431Z,101731.41
2022-10-11T03:46:22.483Z,101728.00
2022-10-11T03:48:50.585Z,101736.25
2022-10-11T03:51:18.599Z,101730.50
2022-10-11T03:53:46.548Z,101738.03
2022-10-11T03:56:19.629Z,101749.88
2022-10-11T03:58:47.701Z,101747.38
2022-10-11T04:01:15.596Z,101752.41
2022-10-11T04:03:46.165Z,101750.59
2022-10-11T04:06:14.255Z,101755.25
2022-10-11T04:08:42.221Z,101761.00
2022-10-11T04:11:15.971Z,101761.69
2022-10-11T04:13:45.162Z,101758.63
2022-10-11T04:16:13.275Z,101772.09
2022-10-11T04:18:41.324Z,101769.22
2022-10-11T04:21:11.698Z,101778.19
2022-10-11T04:23:41.301Z,101776.19
2022-10-11T04:26:09.455Z,101762.19
2022-10-11T04:28:37.525Z,101781.75
2022-10-11T04:31:13.001Z,101785.88
2022-10-11T04:33:41.507Z,101770.63
2022-10-11T04:36:18.657Z,101787.66
2022-10-11T04:38:46.450Z,101790.00
2022-10-11T04:41:15.677Z,101788.00
2022-10-11T04:43:49.015Z,101791.41
2022-10-11T04:46:18.726Z,101785.31
2022-10-11T04:48:55.100Z,101794.66
2022-10-11T04:51:23.491Z,101797.19
2022-10-11T04:53:52.387Z,101793.59
2022-10-11T04:56:20.548Z,101805.91
2022-10-11T04:58:49.493Z,101795.69
2022-10-11T05:01:18.978Z,101808.06
2022-10-11T05:03:47.019Z,101811.09
2022-10-11T05:06:14.996Z,101813.59
2022-10-11T05:08:45.510Z,101820.44
2022-10-11T05:11:17.819Z,101815.03
2022-10-11T05:13:49.857Z,101814.50
2022-10-11T05:16:29.910Z,101827.03
2022-10-11T05:18:57.859Z,101826.13
2022-10-11T05:21:27.373Z,101823.44
2022-10-11T05:23:57.093Z,101828.47
2022-10-11T05:26:27.483Z,101832.75
2022-10-11T05:28:56.232Z,101832.56
2022-10-11T05:31:25.940Z,101816.03
2022-10-11T05:33:53.811Z,101832.22
2022-10-11T05:36:22.172Z,101840.44
2022-10-11T05:38:55.908Z,101832.91
2022-10-11T05:41:26.486Z,101841.34
2022-10-11T05:43:54.399Z,101850.47
2022-10-11T05:46:24.734Z,101845.84
2022-10-11T05:48:56.460Z,101848.34
2022-10-11T05:51:31.860Z,101854.06
2022-10-11T05:54:12.687Z,101861.25
2022-10-11T05:56:44.862Z,101860.19
2022-10-11T05:59:19.122Z,101862.03
2022-10-11T06:01:49.791Z,101869.22
2022-10-11T06:04:22.484Z,101865.47
2022-10-11T06:06:50.443Z,101871.03
2022-10-11T06:09:21.701Z,101879.84
2022-10-11T06:11:49.635Z,101879.69
2022-10-11T06:14:17.535Z,101871.06
2022-10-11T06:16:46.363Z,101880.09
2022-10-11T06:19:14.374Z,101880.59
2022-10-11T06:21:55.943Z,101890.31
2022-10-11T06:24:24.140Z,101898.41
2022-10-11T06:26:57.898Z,101892.13
2022-10-11T06:29:25.875Z,101890.69
2022-10-11T06:31:53.795Z,101899.34
2022-10-11T06:34:25.329Z,101901.31
2022-10-11T06:36:57.512Z,101893.41
2022-10-11T06:39:25.440Z,101906.00
2022-10-11T06:41:59.405Z,101904.22
2022-10-11T06:44:27.785Z,101910.50
2022-10-11T06:47:00.899Z,101913.56
2022-10-11T06:49:28.735Z,101912.50
2022-10-11T06:52:00.891Z,101923.28
2022-10-11T06:54:28.872Z,101914.31
2022-10-11T06:57:10.604Z,101922.56
2022-10-11T06:59:52.345Z,101923.44
2022-10-11T07:02:20.240Z,101937.09
2022-10-11T07:04:53.894Z,101933.31
2022-10-11T07:07:23.834Z,101932.78
2022-10-11T07:09:54.365Z,101931.00
2022-10-11T07:12:36.502Z,101937.84
2022-10-11T07:15:04.796Z,101946.06
2022-10-11T07:17:39.861Z,101945.94
2022-10-11T07:20:14.120Z,101949.13
2022-10-11T07:22:43.385Z,101953.47
2022-10-11T07:25:45.668Z,101958.50
2022-10-11T07:28:13.751Z,101948.97
2022-10-11T07:30:47.326Z,101951.66
2022-10-11T07:33:15.346Z,101948.44
2022-10-11T07:35:48.090Z,101959.03
2022-10-11T07:38:18.537Z,101949.84
2022-10-11T07:40:50.024Z,101933.69
2022-10-11T07:43:21.703Z,101954.72
2022-10-11T07:45:54.410Z,101955.38
2022-10-11T07:48:22.871Z,101957.38
2022-10-11T07:50:58.451Z,101958.09
2022-10-11T07:53:27.806Z,101962.38
2022-10-11T07:56:03.729Z,101956.94
2022-10-11T07:58:33.750Z,101956.91
2022-10-11T08:01:01.940Z,101941.47
2022-10-11T08:03:56.844Z,101973.00
2022-10-11T08:06:31.721Z,101967.34
2022-10-11T08:09:12.811Z,101971.41
2022-10-11T08:11:43.774Z,101971.56
2022-10-11T08:14:38.164Z,101971.84
2022-10-11T08:17:06.131Z,101975.53
2022-10-11T08:19:40.365Z,101956.75
2022-10-11T08:22:11.439Z,101966.75
2022-10-11T08:24:50.322Z,101969.59
2022-10-11T08:27:31.652Z,101966.63
2022-10-11T08:30:07.802Z,101966.56
2022-10-11T08:32:46.027Z,101971.56
2022-10-11T08:35:17.470Z,101971.47
2022-10-11T08:37:51.036Z,101973.22
2022-10-11T08:40:22.613Z,101969.06
2022-10-11T08:43:00.999Z,101984.81
2022-10-11T08:45:34.251Z,101980.97
2022-10-11T08:48:18.239Z,101985.06
2022-10-11T08:50:58.641Z,101988.47
2022-10-11T08:53:38.996Z,101984.97
2022-10-11T08:56:13.287Z,101987.41
2022-10-11T08:59:12.546Z,101990.59
2022-10-11T09:01:50.001Z,101970.47
2022-10-11T09:04:19.466Z,101991.75
2022-10-11T09:06:56.121Z,101984.09
2022-10-11T09:09:44.098Z,101989.09
2022-10-11T09:12:19.766Z,101993.72
2022-10-11T09:15:26.915Z,101984.84
2022-10-11T09:18:31.383Z,101995.44
2022-10-11T09:21:17.793Z,101998.78
2022-10-11T09:24:20.495Z,101998.81
2022-10-11T09:26:56.119Z,102001.09
2022-10-11T09:29:41.077Z,102000.94
2022-10-11T09:32:16.063Z,101998.91
2022-10-11T09:34:44.431Z,102003.81
2022-10-11T09:37:26.157Z,102001.19
2022-10-11T09:40:23.729Z,102004.25
2022-10-11T09:43:10.456Z,101997.72
2022-10-11T09:45:49.120Z,101962.31
2022-10-11T09:48:21.804Z,101996.88
2022-10-11T09:50:54.253Z,102000.19
2022-10-11T09:54:01.401Z,102003.50
2022-10-11T09:56:31.283Z,101995.91
2022-10-11T09:59:19.798Z,101990.44
2022-10-11T10:02:19.184Z,101997.06
2022-10-11T10:05:24.217Z,101998.56
2022-10-11T10:08:22.482Z,101998.75
2022-10-11T10:11:00.181Z,102001.03
2022-10-11T10:13:45.968Z,101997.13
2022-10-11T10:16:24.994Z,102004.25
2022-10-11T10:18:57.812Z,101991.59
2022-10-11T10:21:34.256Z,102003.31
2022-10-11T10:24:06.899Z,102001.81
2022-10-11T10:26:37.732Z,102011.53
2022-10-11T10:29:20.985Z,102007.81
2022-10-11T10:32:15.235Z,102012.44
2022-10-11T10:35:00.614Z,102002.28
2022-10-11T10:37:36.608Z,102002.28
2022-10-11T10:40:10.267Z,102007.22
2022-10-11T10:42:39.087Z,101992.88
2022-10-11T10:45:20.228Z,102007.09
2022-10-11T10:48:19.269Z,102008.75
2022-10-11T10:50:55.649Z,102012.34
2022-10-11T10:53:30.103Z,101997.00
2022-10-11T10:56:11.725Z,101994.78
2022-10-11T10:59:02.757Z,102011.19
2022-10-11T11:01:33.352Z,102013.13
2022-10-11T11:04:08.734Z,102005.69
2022-10-11T11:06:43.539Z,102017.88
2022-10-11T11:09:31.384Z,102013.69
2022-10-11T11:12:09.386Z,102015.63
2022-10-11T11:14:48.986Z,102009.22
2022-10-11T11:17:27.147Z,102012.53
2022-10-11T11:20:05.744Z,102010.44
2022-10-11T11:22:45.422Z,102017.75
2022-10-11T11:25:25.429Z,102012.38
2022-10-11T11:28:08.111Z,102016.72
2022-10-11T11:30:57.966Z,102013.13
2022-10-11T11:33:38.631Z,102005.06
2022-10-11T11:36:20.164Z,102001.03
2022-10-11T11:39:09.204Z,102007.03
2022-10-11T11:41:41.778Z,102015.53
2022-10-11T11:44:17.094Z,102007.47
2022-10-11T11:46:51.073Z,102011.69
2022-10-11T11:49:23.793Z,102008.53
2022-10-11T11:51:52.854Z,102008.66
2022-10-11T11:54:43.739Z,102012.88
2022-10-11T11:57:42.666Z,102012.25
2022-10-11T12:00:19.106Z,102006.00
2022-10-11T12:02:56.327Z,102002.13
2022-10-11T12:05:31.648Z,101999.28
2022-10-11T12:08:02.815Z,101982.75
2022-10-11T12:10:56.568Z,102006.00
2022-10-11T12:13:42.381Z,102005.56
2022-10-11T12:16:13.524Z,101997.97
2022-10-11T12:18:53.565Z,101994.69
2022-10-11T12:21:32.760Z,101993.31
2022-10-11T12:24:02.140Z,101991.41
2022-10-11T12:26:48.387Z,101996.59
2022-10-11T12:29:49.705Z,101994.38
2022-10-11T12:32:56.663Z,101987.63
2022-10-11T12:36:14.225Z,101990.69
2022-10-11T12:39:01.852Z,101972.72
2022-10-11T12:42:07.207Z,101984.91
2022-10-11T12:44:35.710Z,101981.22
2022-10-11T12:47:28.361Z,101963.31
2022-10-11T12:50:22.603Z,101956.16
2022-10-11T12:53:02.893Z,101984.94
2022-10-11T12:55:52.155Z,101978.81
2022-10-11T12:58:41.670Z,101981.53
2022-10-11T13:01:49.172Z,101982.56
2022-10-11T13:04:20.133Z,101973.78
2022-10-11T13:07:14.564Z,101971.25
2022-10-11T13:09:49.110Z,101977.97
2022-10-11T13:12:23.278Z,101969.84
2022-10-11T13:15:21.298Z,101966.28
2022-10-11T13:17:54.991Z,101968.66
2022-10-11T13:20:31.606Z,101971.34
2022-10-11T13:22:59.890Z,101971.66
2022-10-11T13:25:37.515Z,101969.44
2022-10-11T13:28:10.249Z,101969.56
2022-10-11T13:30:50.513Z,101976.31
2022-10-11T13:33:23.578Z,101978.25
2022-10-11T13:35:52.211Z,101980.34
2022-10-11T13:38:26.793Z,101979.59
2022-10-11T13:40:57.137Z,101979.16
2022-10-11T13:43:30.653Z,101977.06
2022-10-11T13:46:01.047Z,101976.00
2022-10-11T13:48:43.011Z,101982.72
2022-10-11T13:51:28.631Z,101939.31
2022-10-11T13:54:09.484Z,101965.72
2022-10-11T13:56:47.022Z,101961.97
2022-10-11T13:59:20.516Z,101944.22
2022-10-11T14:01:49.844Z,101955.56
2022-10-11T14:04:41.638Z,101960.06
2022-10-11T14:07:23.238Z,101956.16
2022-10-11T14:09:53.867Z,101953.16
2022-10-11T14:12:35.488Z,101957.47
2022-10-11T14:15:08.372Z,101913.75
2022-10-11T14:17:47.274Z,101958.16
2022-10-11T14:20:22.642Z,101952.34
2022-10-11T14:22:53.853Z,101957.09
2022-10-11T14:25:23.089Z,101955.72
2022-10-11T14:28:02.151Z,101957.63
2022-10-11T14:30:33.556Z,101955.00
2022-10-11T14:33:18.495Z,101949.53
2022-10-11T14:35:53.527Z,101948.59
2022-10-11T14:38:31.166Z,101953.72
2022-10-11T14:40:58.981Z,101953.88
2022-10-11T14:46:35.785Z,101942.03
2022-10-11T14:49:03.759Z,101957.47
2022-10-11T14:51:42.308Z,101959.69
2022-10-11T14:54:11.303Z,101960.25
2022-10-11T14:56:39.322Z,101950.03
2022-10-11T14:59:07.778Z,101952.84
2022-10-11T15:01:36.255Z,101960.63
2022-10-11T15:04:04.074Z,101949.47
2022-10-11T15:06:35.512Z,101952.34
2022-10-11T15:09:05.539Z,101947.31
2022-10-11T15:11:34.082Z,101951.81
2022-10-11T15:14:01.902Z,101952.44
2022-10-11T15:16:29.839Z,101952.56
2022-10-11T15:18:57.917Z,101954.97
2022-10-11T15:21:28.442Z,101955.56
2022-10-11T15:23:57.291Z,101951.72
2022-10-11T15:26:28.577Z,101951.25
2022-10-11T15:28:58.337Z,101952.13
2022-10-11T15:31:26.219Z,101950.78
2022-10-11T15:33:54.002Z,101946.75
2022-10-11T15:36:23.528Z,101941.09
2022-10-11T15:38:51.578Z,101953.16
2022-10-11T15:41:21.135Z,101955.22
2022-10-11T15:43:50.644Z,101948.66
2022-10-11T15:46:22.018Z,101959.22
2022-10-11T15:48:50.467Z,101961.00
2022-10-11T15:51:19.006Z,101955.47
2022-10-11T15:53:47.283Z,101952.13
2022-10-11T15:56:18.660Z,101953.88
2022-10-11T15:58:47.002Z,101942.22
2022-10-11T16:01:18.671Z,101956.50
2022-10-11T16:03:47.448Z,101968.97
2022-10-11T16:06:15.261Z,101959.09
2022-10-11T16:08:43.081Z,101967.44
2022-10-11T16:11:12.614Z,101969.69
2022-10-11T16:13:40.791Z,101962.91
2022-10-11T16:16:10.660Z,101973.03
2022-10-11T16:18:40.279Z,101968.97
2022-10-11T16:21:10.423Z,101979.06
2022-10-11T16:23:39.548Z,101978.81
2022-10-11T16:26:10.099Z,101971.34
2022-10-11T16:28:38.307Z,101980.41
2022-10-11T16:31:10.390Z,101984.41
2022-10-11T16:33:45.913Z,101975.47
2022-10-11T16:36:35.791Z,101978.97
2022-10-11T16:39:07.187Z,101990.50
2022-10-11T16:41:35.102Z,101991.97
2022-10-11T16:44:02.927Z,101985.00
2022-10-11T16:46:32.275Z,101971.44
2022-10-11T16:49:02.438Z,101986.78
2022-10-11T16:51:30.473Z,101977.06
2022-10-11T16:53:58.253Z,101983.28
2022-10-11T16:56:26.066Z,101973.09
2022-10-11T16:58:54.121Z,101978.94
2022-10-11T17:01:22.512Z,101980.41
2022-10-11T17:03:51.144Z,101980.06
2022-10-11T17:06:21.056Z,101981.53
2022-10-11T17:08:48.900Z,101975.66
2022-10-11T17:11:17.602Z,101984.94
2022-10-11T17:13:46.019Z,101988.59
2022-10-11T17:16:13.970Z,101985.41
2022-10-11T17:18:41.770Z,101979.13
2022-10-11T17:21:13.043Z,101980.75
2022-10-11T17:23:42.667Z,101983.84
2022-10-11T17:26:16.638Z,101985.31
2022-10-11T17:28:44.802Z,101983.72
2022-10-11T17:31:12.735Z,101978.19
2022-10-11T17:33:40.646Z,101963.47
2022-10-11T17:36:17.824Z,101979.47
2022-10-11T17:38:47.153Z,101980.03
2022-10-11T17:41:15.215Z,101980.28
2022-10-11T17:43:43.414Z,101979.22
2022-10-11T17:46:13.566Z,101974.88
2022-10-11T17:48:42.277Z,101975.09
2022-10-11T17:51:11.902Z,101987.72
2022-10-11T17:53:40.178Z,101979.28
2022-10-11T17:56:12.285Z,101973.09
2022-10-11T17:58:40.540Z,101982.97
2022-10-11T18:01:12.171Z,101982.81
2022-10-11T18:03:40.365Z,101986.25
2022-10-11T18:06:10.763Z,101986.81
2022-10-11T18:08:40.784Z,101979.63
2022-10-11T18:11:13.237Z,101979.28
2022-10-11T18:13:45.588Z,101975.69
2022-10-11T18:16:14.821Z,101987.56
2022-10-11T18:18:42.764Z,101977.88
2022-10-11T18:21:11.142Z,101980.97
2022-10-11T18:23:39.154Z,101990.13
2022-10-11T18:26:13.754Z,101985.09
2022-10-11T18:28:42.051Z,101982.25
2022-10-11T18:31:13.739Z,101989.44
2022-10-11T18:33:42.779Z,101987.66
2022-10-11T18:36:13.588Z,101980.47
2022-10-11T18:38:46.275Z,101962.53
2022-10-11T18:41:19.187Z,101980.91
2022-10-11T18:43:50.728Z,101984.88
2022-10-11T18:46:19.263Z,101979.63
2022-10-11T18:48:49.612Z,101978.38
2022-10-11T18:51:19.973Z,101979.84
2022-10-11T18:53:49.015Z,101976.81
2022-10-11T18:56:20.999Z,101976.28
2022-10-11T18:58:50.273Z,101963.19
2022-10-11T19:01:19.943Z,101973.06
2022-10-11T19:03:50.455Z,101972.19
2022-10-11T19:06:21.208Z,101974.34
2022-10-11T19:08:50.917Z,101972.19
2022-10-11T19:11:21.668Z,101968.09
2022-10-11T19:13:49.882Z,101965.22
2022-10-11T19:16:18.397Z,101970.81
2022-10-11T19:18:50.219Z,101972.44
2022-10-11T19:21:18.279Z,101971.00
2022-10-11T19:23:48.223Z,101969.94
2022-10-11T19:26:18.924Z,101969.72
2022-10-11T19:28:49.195Z,101967.78
2022-10-11T19:31:17.356Z,101965.25
2022-10-11T19:33:48.131Z,101955.06
2022-10-11T19:36:16.747Z,101969.44
2022-10-11T19:38:46.281Z,101969.78
2022-10-11T19:41:15.617Z,101966.03
2022-10-11T19:43:43.690Z,101960.28
2022-10-11T19:46:20.131Z,101967.47
2022-10-11T19:48:55.782Z,101963.88
2022-10-11T19:51:25.802Z,101960.09
2022-10-11T19:53:57.163Z,101938.00
2022-10-11T19:56:26.039Z,101970.34
2022-10-11T19:58:54.292Z,101961.00
2022-10-11T20:01:25.370Z,101965.34
2022-10-11T20:03:55.488Z,101964.97
2022-10-11T20:06:27.686Z,101964.63
2022-10-11T20:09:23.808Z,101972.00
2022-10-11T20:11:44.634Z,101977.56
2022-10-11T20:14:12.555Z,101974.66
2022-10-11T20:16:42.293Z,101968.03
2022-10-11T20:19:10.255Z,101969.63
2022-10-11T20:21:38.153Z,101968.75
2022-10-11T20:24:08.459Z,101965.88
2022-10-11T20:26:36.447Z,101966.78
2022-10-11T20:29:04.476Z,101961.38
2022-10-11T20:31:34.535Z,101968.94
2022-10-11T20:34:07.079Z,101970.56
2022-10-11T20:36:36.518Z,101969.25
2022-10-11T20:39:05.811Z,101953.81
2022-10-11T20:41:36.931Z,101969.09
2022-10-11T20:44:05.557Z,101968.53
2022-10-11T20:46:35.501Z,101967.84
2022-10-11T20:49:06.771Z,101962.25
2022-10-11T20:51:37.298Z,101963.16
2022-10-11T20:54:05.597Z,101974.47
2022-10-11T20:56:34.283Z,101974.31
2022-10-11T20:59:02.471Z,101971.59
2022-10-11T21:01:32.526Z,101974.66
2022-10-11T21:04:01.379Z,101971.94
2022-10-11T21:06:32.897Z,101966.38
2022-10-11T21:09:01.377Z,101972.31
2022-10-11T21:11:31.117Z,101943.22
2022-10-11T21:14:00.185Z,101965.31
2022-10-11T21:16:29.009Z,101973.94
2022-10-11T21:18:59.116Z,101977.13
2022-10-11T21:21:27.885Z,101972.66
2022-10-11T21:23:57.785Z,101968.69
2022-10-11T21:26:26.162Z,101976.44
2022-10-11T21:28:54.969Z,101970.69
2022-10-11T21:31:31.287Z,101971.94
2022-10-11T21:34:02.673Z,101976.59
2022-10-11T21:36:30.831Z,101968.50
2022-10-11T21:39:00.151Z,101972.09
2022-10-11T21:41:30.080Z,101977.13
2022-10-11T21:43:58.576Z,101970.28
2022-10-11T21:46:54.010Z,101964.53
2022-10-11T21:49:17.117Z,101953.03
2022-10-11T21:51:45.188Z,101946.94
2022-10-11T21:54:14.487Z,101962.94
2022-10-11T21:56:42.647Z,101963.25
2022-10-11T21:59:12.310Z,101971.88
2022-10-11T22:01:41.749Z,101964.13
2022-10-11T22:04:11.138Z,101974.56
2022-10-11T22:06:39.545Z,101965.22
2022-10-11T22:09:09.223Z,101963.03
2022-10-11T22:11:39.052Z,101963.59
2022-10-11T22:14:07.345Z,101969.13
2022-10-11T22:16:35.642Z,101967.31
2022-10-11T22:19:03.591Z,101967.88
2022-10-11T22:21:31.390Z,101974.50
2022-10-11T22:23:59.842Z,101965.19
2022-10-11T22:26:30.826Z,101963.72
2022-10-11T22:36:00.638Z,101973.75
2022-10-11T22:38:29.285Z,101969.47
2022-10-11T22:40:59.448Z,101967.66
2022-10-11T22:43:29.560Z,101969.47
2022-10-11T22:45:57.726Z,101974.09
2022-10-11T22:48:28.273Z,101965.47
2022-10-11T22:50:56.209Z,101973.34
2022-10-11T22:53:25.368Z,101967.28
2022-10-11T22:55:53.460Z,101961.88
2022-10-11T22:58:21.610Z,101963.47
2022-10-11T23:00:51.831Z,101965.78
2022-10-11T23:03:20.454Z,101962.59
2022-10-11T23:05:56.318Z,101955.41
2022-10-11T23:08:25.933Z,101964.00
2022-10-11T23:10:53.819Z,101954.81
2022-10-11T23:13:23.815Z,101957.84
2022-10-11T23:15:54.379Z,101956.78
2022-10-11T23:18:22.201Z,101959.31
2022-10-11T23:20:52.020Z,101952.47
2022-10-11T23:23:19.887Z,101964.66
2022-10-11T23:25:49.107Z,101960.84
2022-10-11T23:28:16.938Z,101970.00
2022-10-11T23:30:53.692Z,101969.09
2022-10-11T23:33:21.518Z,101962.81
2022-10-11T23:35:52.434Z,101966.03
2022-10-11T23:38:20.296Z,101972.69
2022-10-11T23:40:49.721Z,101970.16
2022-10-11T23:43:17.511Z,101972.47
2022-10-11T23:45:49.449Z,101972.47
2022-10-11T23:48:20.476Z,101982.16
2022-10-11T23:50:48.425Z,101979.28
2022-10-11T23:53:16.325Z,101990.19
2022-10-11T23:55:44.201Z,101990.91
2022-10-11T23:58:13.386Z,101988.91
